Time;durP1;ratioP1;P1;durP2;ratioP2;P2;SDS_P1;SDS_P2;PMS_P1;PMS_P2;Temp;Humidity;BMP_temperature;BMP_pressure;BME280_temperature;BME280_humidity;BME280_pressure;Samples;Min_cycle;Max_cycle;Signal;HPM_P1;HPM_P2
2024/03/05 00:00:58;;;;;;;14.18;11.20;;;8.10;99.90;;;;;;4877174;29;1046342;-91
2024/03/05 00:03:24;;;;;;;18.33;10.82;;;8.10;99.90;;;;;;4901203;29;20044;-89
2024/03/05 00:05:50;;;;;;;17.45;11.35;;;8.10;99.90;;;;;;4899966;29;20029;-91
2024/03/05 00:08:16;;;;;;;17.35;11.55;;;8.10;99.90;;;;;;4900591;29;20027;-90
2024/03/05 00:10:42;;;;;;;20.25;12.50;;;8.10;99.90;;;;;;4910946;29;20024;-91
2024/03/05 00:13:07;;;;;;;15.52;11.60;;;8.10;99.90;;;;;;4918971;29;20028;-89
2024/03/05 00:15:33;;;;;;;18.48;11.13;;;8.10;99.90;;;;;;4918612;29;20493;-90
2024/03/05 00:17:59;;;;;;;16.25;11.15;;;8.10;99.90;;;;;;4918501;29;20030;-90
2024/03/05 00:20:25;;;;;;;22.25;13.23;;;8.10;99.90;;;;;;4918481;29;20024;-90
2024/03/05 00:22:51;;;;;;;19.48;12.75;;;8.20;99.90;;;;;;4920662;29;20060;-89
2024/03/05 00:25:17;;;;;;;16.55;11.70;;;8.10;99.90;;;;;;4935874;29;20030;-90
2024/03/05 00:27:44;;;;;;;18.77;11.60;;;8.10;99.90;;;;;;4918318;29;20032;-89
2024/03/05 00:30:12;;;;;;;20.80;12.80;;;8.20;99.90;;;;;;4910570;29;20028;-89
2024/03/05 00:32:37;;;;;;;19.55;12.63;;;8.10;99.90;;;;;;4918166;29;20040;-90
2024/03/05 00:35:07;;;;;;;19.52;12.18;;;8.20;99.90;;;;;;4918131;29;20040;-91
2024/03/05 00:37:35;;;;;;;16.37;12.30;;;8.10;99.90;;;;;;4919030;29;20021;-91
2024/03/05 00:40:01;;;;;;;22.15;13.30;;;8.10;99.90;;;;;;4918439;29;20271;-90
2024/03/05 00:42:27;;;;;;;16.80;12.90;;;8.10;99.90;;;;;;4918344;29;20465;-90
2024/03/05 00:44:52;;;;;;;16.88;12.50;;;8.10;99.90;;;;;;4917587;29;20028;-90
2024/03/05 00:47:18;;;;;;;16.33;11.88;;;8.10;99.90;;;;;;4918057;29;20028;-90
2024/03/05 00:49:44;;;;;;;19.98;12.95;;;8.20;99.90;;;;;;4918032;29;20036;-91
2024/03/05 00:52:09;;;;;;;21.80;13.25;;;8.20;99.90;;;;;;4918259;29;20025;-90
2024/03/05 00:54:35;;;;;;;18.20;13.32;;;8.20;99.90;;;;;;4918177;29;20506;-90
2024/03/05 00:57:00;;;;;;;20.30;13.63;;;8.10;99.90;;;;;;4917982;29;20079;-90
2024/03/05 00:59:26;;;;;;;22.95;13.93;;;8.10;99.90;;;;;;4917951;29;20123;-90
2024/03/05 01:01:51;;;;;;;18.85;12.95;;;8.10;99.90;;;;;;4917782;29;20069;-90
2024/03/05 01:04:17;;;;;;;16.50;12.80;;;8.10;99.90;;;;;;4917982;29;20060;-91
2024/03/05 01:06:44;;;;;;;16.77;13.10;;;8.10;99.90;;;;;;4900468;29;20107;-91
2024/03/05 01:09:18;;;;;;;21.60;13.45;;;8.10;99.90;;;;;;4907692;29;20496;-91
2024/03/05 01:11:43;;;;;;;20.70;14.35;;;8.10;99.90;;;;;;4917862;29;20039;-91
2024/03/05 01:14:09;;;;;;;20.75;13.07;;;8.10;99.90;;;;;;4918547;29;20036;-91
2024/03/05 01:16:34;;;;;;;18.92;13.95;;;8.00;99.90;;;;;;4917618;29;20051;-90
2024/03/05 01:19:00;;;;;;;29.73;15.25;;;8.10;99.90;;;;;;4917307;29;20058;-90
2024/03/05 01:21:25;;;;;;;19.65;13.75;;;8.10;99.90;;;;;;4917953;29;20067;-91
2024/03/05 01:23:51;;;;;;;20.17;13.95;;;8.00;99.90;;;;;;4917951;29;20017;-91
2024/03/05 01:26:17;;;;;;;24.10;14.30;;;8.00;99.90;;;;;;4912254;29;20040;-90
2024/03/05 01:28:43;;;;;;;22.60;14.02;;;8.00;99.90;;;;;;4898369;29;20068;-91
2024/03/05 01:31:09;;;;;;;19.55;14.68;;;8.00;99.90;;;;;;4901512;29;20029;-90
2024/03/05 01:33:37;;;;;;;22.75;14.48;;;8.00;99.90;;;;;;4901085;29;20028;-91
2024/03/05 01:36:03;;;;;;;20.35;14.55;;;8.00;99.90;;;;;;4918942;29;20043;-90
2024/03/05 01:38:29;;;;;;;20.85;14.65;;;8.00;99.90;;;;;;4918318;29;20024;-90
2024/03/05 01:40:55;;;;;;;22.58;15.43;;;8.00;99.90;;;;;;4917326;29;20080;-92
2024/03/05 01:43:21;;;;;;;23.58;15.02;;;8.00;99.90;;;;;;4917734;29;20492;-92
2024/03/05 01:45:47;;;;;;;19.73;14.30;;;8.00;99.90;;;;;;4917716;29;20026;-90
2024/03/05 01:48:14;;;;;;;23.48;15.30;;;8.00;99.90;;;;;;4915294;29;20036;-90
2024/03/05 01:50:40;;;;;;;20.63;15.38;;;7.90;99.90;;;;;;4916951;29;20084;-91
2024/03/05 01:53:10;;;;;;;22.85;15.07;;;8.00;99.90;;;;;;4917964;29;20032;-90
2024/03/05 01:55:38;;;;;;;22.83;14.45;;;8.00;99.90;;;;;;4917280;29;20111;-91
2024/03/05 01:58:07;;;;;;;22.17;14.98;;;7.90;99.90;;;;;;4917190;29;20032;-90
2024/03/05 02:00:36;;;;;;;24.40;15.57;;;7.90;99.90;;;;;;4917373;29;20076;-91
2024/03/05 02:03:01;;;;;;;23.90;15.60;;;7.90;99.90;;;;;;4926045;29;20044;-90
2024/03/05 02:05:27;;;;;;;22.15;15.27;;;7.90;99.90;;;;;;4920399;29;20024;-91
2024/03/05 02:07:53;;;;;;;26.73;15.73;;;7.70;99.90;;;;;;4919538;29;20039;-90
2024/03/05 02:10:20;;;;;;;23.85;14.93;;;7.70;99.90;;;;;;4918407;29;20032;-91
2024/03/05 02:12:45;;;;;;;25.08;15.48;;;7.70;99.90;;;;;;4917342;29;20035;-90
2024/03/05 02:15:11;;;;;;;23.13;15.70;;;7.60;99.90;;;;;;4920222;29;20381;-91
2024/03/05 02:17:38;;;;;;;24.50;16.08;;;7.70;99.90;;;;;;4919484;29;20376;-91
2024/03/05 02:20:09;;;;;;;27.05;17.52;;;7.60;99.90;;;;;;4917840;29;20070;-91
2024/03/05 02:22:36;;;;;;;;;;;7.50;99.90;;;;;;4922880;29;20029;-90
2024/03/05 02:25:03;;;;;;;25.63;16.23;;;7.50;99.90;;;;;;4920563;29;19918;-91
2024/03/05 02:27:29;;;;;;;22.88;15.10;;;7.40;99.90;;;;;;4927155;29;20035;-91
2024/03/05 02:29:55;;;;;;;27.38;16.55;;;7.40;99.90;;;;;;4922357;29;20028;-90
2024/03/05 02:32:21;;;;;;;30.98;17.25;;;7.40;99.90;;;;;;4932398;29;20028;-91
2024/03/05 02:34:48;;;;;;;28.52;18.88;;;7.40;99.90;;;;;;4933301;29;20031;-90
2024/03/05 02:37:14;;;;;;;30.88;18.02;;;7.40;99.90;;;;;;4922657;29;20024;-91
2024/03/05 02:39:39;;;;;;;32.70;17.80;;;7.40;99.90;;;;;;4921865;29;20041;-91
2024/03/05 02:42:05;;;;;;;26.92;16.90;;;7.40;99.90;;;;;;4919503;29;20024;-92
2024/03/05 02:44:31;;;;;;;31.02;18.33;;;7.50;99.90;;;;;;4920239;29;20032;-91
2024/03/05 02:46:56;;;;;;;28.38;17.15;;;7.50;99.90;;;;;;4920368;29;20025;-92
2024/03/05 02:49:22;;;;;;;31.17;16.98;;;7.50;99.90;;;;;;4920587;29;20036;-91
2024/03/05 02:51:47;;;;;;;33.80;19.65;;;7.60;99.90;;;;;;4920362;29;20076;-91
2024/03/05 02:54:13;;;;;;;31.13;18.73;;;7.70;99.90;;;;;;4919491;29;20028;-91
2024/03/05 02:56:39;;;;;;;33.58;20.27;;;7.60;99.90;;;;;;4919962;29;20031;-92
2024/03/05 02:59:05;;;;;;;35.13;20.83;;;7.60;99.90;;;;;;4916348;29;20481;-91
2024/03/05 03:01:30;;;;;;;31.90;19.58;;;7.60;99.90;;;;;;4911375;29;20037;-92
2024/03/05 03:03:56;;;;;;;31.42;18.83;;;7.70;99.90;;;;;;4901666;29;20036;-90
2024/03/05 03:06:22;;;;;;;37.40;19.67;;;7.70;99.90;;;;;;4901342;29;20036;-90
2024/03/05 03:08:47;;;;;;;37.05;20.02;;;7.70;99.90;;;;;;4901058;29;20081;-89
2024/03/05 03:11:17;;;;;;;31.98;19.30;;;7.60;99.90;;;;;;4910042;29;20024;-91
2024/03/05 03:13:44;;;;;;;35.38;19.30;;;7.60;99.90;;;;;;4920429;29;20036;-90
2024/03/05 03:16:09;;;;;;;34.47;19.85;;;7.50;99.90;;;;;;4921222;29;20043;-92
2024/03/05 03:18:36;;;;;;;32.58;19.50;;;7.50;99.90;;;;;;4919791;29;20028;-90
2024/03/05 03:21:03;;;;;;;34.70;20.10;;;7.50;99.90;;;;;;4920404;29;20540;-90
2024/03/05 03:23:28;;;;;;;35.25;20.95;;;7.60;99.90;;;;;;4920351;29;20126;-92
2024/03/05 03:25:54;;;;;;;32.03;19.73;;;7.60;99.90;;;;;;4918410;29;20096;-91
2024/03/05 03:28:19;;;;;;;35.50;21.05;;;7.60;99.90;;;;;;4900775;29;20024;-91
2024/03/05 03:30:45;;;;;;;33.55;20.75;;;7.70;99.90;;;;;;4907957;29;20118;-90
2024/03/05 03:33:11;;;;;;;34.47;21.63;;;7.70;99.90;;;;;;4919289;29;20016;-93
2024/03/05 03:35:38;;;;;;;39.10;21.08;;;7.80;99.90;;;;;;4919586;29;20389;-90
2024/03/05 03:38:03;;;;;;;36.70;21.95;;;7.80;99.90;;;;;;4919337;29;20049;-91
2024/03/05 03:40:33;;;;;;;38.42;21.65;;;7.80;99.90;;;;;;4919463;29;20032;-92
2024/03/05 03:42:58;;;;;;;39.20;22.60;;;7.80;99.90;;;;;;4918734;29;20481;-91
2024/03/05 03:45:24;;;;;;;46.17;24.27;;;7.80;99.90;;;;;;4920161;29;20031;-91
2024/03/05 03:47:50;;;;;;;42.10;22.73;;;7.80;99.90;;;;;;4919177;29;20039;-91
2024/03/05 03:50:15;;;;;;;37.50;22.40;;;7.80;99.90;;;;;;4919960;29;20084;-92
2024/03/05 03:52:41;;;;;;;48.55;24.60;;;7.80;99.90;;;;;;4920156;29;20051;-91
2024/03/05 03:55:08;;;;;;;45.97;24.83;;;7.80;99.90;;;;;;4928020;29;20654;-91
2024/03/05 03:57:34;;;;;;;50.78;25.38;;;7.90;99.90;;;;;;4928584;29;20032;-91
2024/03/05 04:00:00;;;;;;;47.78;24.92;;;7.80;99.90;;;;;;4923086;29;20059;-91
2024/03/05 04:02:26;;;;;;;51.17;25.60;;;7.80;99.90;;;;;;4913746;29;20092;-92
2024/03/05 04:04:52;;;;;;;50.13;26.13;;;7.90;99.90;;;;;;4918884;29;20071;-91
2024/03/05 04:07:18;;;;;;;45.95;24.23;;;7.80;99.90;;;;;;4919074;29;20350;-90
2024/03/05 04:09:44;;;;;;;49.45;26.23;;;7.80;99.90;;;;;;4918860;29;20063;-90
2024/03/05 04:12:12;;;;;;;45.08;26.05;;;7.80;99.90;;;;;;4915410;29;20052;-92
2024/03/05 04:14:38;;;;;;;49.38;25.80;;;7.80;99.90;;;;;;4899859;29;20439;-92
2024/03/05 04:17:04;;;;;;;49.42;26.58;;;7.90;99.90;;;;;;4900169;29;20033;-92
2024/03/05 04:19:30;;;;;;;47.33;25.73;;;7.80;99.90;;;;;;4899929;29;20029;-92
2024/03/05 04:21:56;;;;;;;52.25;27.48;;;7.80;99.90;;;;;;4916083;29;20273;-91
2024/03/05 04:24:22;;;;;;;45.95;27.33;;;7.80;99.90;;;;;;4918693;29;20036;-92
2024/03/05 04:26:48;;;;;;;46.42;25.02;;;7.80;99.90;;;;;;4918902;29;20028;-91
2024/03/05 04:29:19;;;;;;;45.45;25.20;;;7.80;99.90;;;;;;4905246;29;20051;-92
2024/03/05 04:32:08;;;;;;;48.38;24.73;;;7.80;99.90;;;;;;4900830;29;20033;-91
2024/03/05 04:34:35;;;;;;;53.85;27.10;;;7.70;99.90;;;;;;4899520;29;20032;-92
2024/03/05 04:37:01;;;;;;;55.25;26.80;;;7.80;99.90;;;;;;4899988;29;20024;-91
2024/03/05 04:39:27;;;;;;;57.28;28.38;;;7.80;99.90;;;;;;4899562;29;20048;-92
2024/03/05 04:41:53;;;;;;;54.38;27.08;;;7.90;99.90;;;;;;4919658;29;20028;-92
2024/03/05 04:44:19;;;;;;;49.42;26.02;;;7.90;99.90;;;;;;4918252;29;20056;-92
2024/03/05 04:46:44;;;;;;;59.20;28.02;;;7.90;99.90;;;;;;4917930;29;20028;-91
2024/03/05 04:49:10;;;;;;;56.38;29.08;;;7.90;99.90;;;;;;4918473;29;20185;-92
2024/03/05 04:51:35;;;;;;;55.00;28.33;;;8.00;99.90;;;;;;4918718;29;20026;-91
2024/03/05 04:54:01;;;;;;;51.60;28.23;;;8.00;99.90;;;;;;4917297;29;20036;-92
2024/03/05 04:56:26;;;;;;;56.60;30.80;;;8.00;99.90;;;;;;4921885;29;20044;-92
2024/03/05 04:58:52;;;;;;;49.13;26.27;;;8.00;99.90;;;;;;4920871;29;20067;-91
2024/03/05 05:01:18;;;;;;;50.10;27.02;;;8.00;99.90;;;;;;4918646;29;20083;-91
2024/03/05 05:03:44;;;;;;;51.55;27.33;;;8.00;99.90;;;;;;4918670;29;20118;-92
2024/03/05 05:06:10;;;;;;;50.38;27.30;;;7.90;99.90;;;;;;4918647;29;20381;-92
2024/03/05 05:08:36;;;;;;;53.33;28.38;;;7.90;99.90;;;;;;4918128;29;20034;-91
2024/03/05 05:11:02;;;;;;;53.70;28.65;;;7.90;99.90;;;;;;4912766;29;20107;-91
2024/03/05 05:13:27;;;;;;;53.33;27.30;;;7.90;99.90;;;;;;4927623;29;20054;-89
2024/03/05 05:15:56;;;;;;;56.28;27.60;;;7.90;99.90;;;;;;4922256;29;20080;-90
2024/03/05 05:18:21;;;;;;;59.00;27.92;;;7.90;99.90;;;;;;4917839;29;20056;-91
2024/03/05 05:20:47;;;;;;;51.15;27.48;;;8.00;99.90;;;;;;4918805;29;20024;-90
2024/03/05 05:23:12;;;;;;;56.65;28.95;;;7.90;99.90;;;;;;4928151;29;20040;-91
2024/03/05 05:25:38;;;;;;;54.60;29.63;;;8.00;99.90;;;;;;4917600;29;20107;-92
2024/03/05 05:28:05;;;;;;;53.88;27.65;;;8.00;99.90;;;;;;4918187;29;20067;-89
2024/03/05 05:30:31;;;;;;;50.08;27.45;;;8.00;99.90;;;;;;4917768;29;20083;-92
2024/03/05 05:32:57;;;;;;;53.58;28.48;;;8.10;99.90;;;;;;4917143;29;20563;-92
2024/03/05 05:35:23;;;;;;;56.03;29.80;;;8.10;99.90;;;;;;4917881;29;20043;-91
2024/03/05 05:37:49;;;;;;;51.00;26.83;;;8.00;99.90;;;;;;4917532;29;20025;-92
2024/03/05 05:40:16;;;;;;;64.63;29.85;;;8.00;99.90;;;;;;4917896;29;20032;-92
2024/03/05 05:42:46;;;;;;;54.58;28.65;;;8.00;99.90;;;;;;4917972;29;20036;-90
2024/03/05 05:45:12;;;;;;;53.58;28.08;;;8.00;99.90;;;;;;4930409;29;20083;-91
2024/03/05 05:47:41;;;;;;;57.00;29.92;;;8.00;99.90;;;;;;4936023;29;20028;-90
2024/03/05 05:50:17;;;;;;;59.37;27.87;;;8.00;99.90;;;;;;4936235;29;20115;-93
2024/03/05 05:52:47;;;;;;;52.67;27.80;;;8.00;99.90;;;;;;4927948;29;20044;-93
2024/03/05 05:55:15;;;;;;;59.60;28.17;;;8.00;99.90;;;;;;4917229;29;20044;-92
2024/03/05 05:57:47;;;;;;;48.55;26.30;;;8.00;99.90;;;;;;4917211;29;20040;-92
2024/03/05 06:00:31;;;;;;;50.10;27.23;;;8.00;99.90;;;;;;4917514;29;20063;-91
2024/03/05 06:02:57;;;;;;;54.20;27.45;;;8.10;99.90;;;;;;4918057;29;20032;-92
2024/03/05 06:05:28;;;;;;;45.25;25.63;;;8.10;99.90;;;;;;4918840;29;20028;-92
2024/03/05 06:07:55;;;;;;;50.85;26.52;;;8.10;99.90;;;;;;4921151;29;20115;-92
2024/03/05 06:10:23;;;;;;;49.05;25.50;;;8.10;99.90;;;;;;4921548;29;20028;-92
2024/03/05 06:12:49;;;;;;;47.35;26.00;;;8.20;99.90;;;;;;4920471;29;20084;-92
2024/03/05 06:15:17;;;;;;;46.05;26.00;;;8.10;99.90;;;;;;4920199;29;20028;-92
2024/03/05 06:17:43;;;;;;;47.00;26.52;;;8.10;99.90;;;;;;4920631;29;20080;-92
2024/03/05 06:20:10;;;;;;;43.88;26.52;;;8.10;99.90;;;;;;4924972;29;20030;-93
2024/03/05 06:22:37;;;;;;;48.05;26.17;;;8.00;99.90;;;;;;4940283;29;20035;-92
2024/03/05 06:25:03;;;;;;;62.33;27.25;;;8.10;99.90;;;;;;4937312;29;20564;-92
2024/03/05 06:27:30;;;;;;;52.28;27.70;;;8.10;99.90;;;;;;4920890;29;20515;-91
2024/03/05 06:29:56;;;;;;;42.70;24.75;;;8.00;99.90;;;;;;4920787;29;20032;-91
2024/03/05 06:32:23;;;;;;;48.10;27.10;;;8.00;99.90;;;;;;4920651;29;20043;-91
2024/03/05 06:34:48;;;;;;;47.95;26.67;;;8.00;99.90;;;;;;4920802;29;20040;-92
2024/03/05 06:37:14;;;;;;;55.33;28.42;;;8.00;99.90;;;;;;4921764;29;20024;-91
2024/03/05 06:39:41;;;;;;;51.30;27.83;;;8.00;99.90;;;;;;4920065;29;20033;-93
2024/03/05 06:42:10;;;;;;;50.42;28.55;;;8.00;99.90;;;;;;4904720;29;20097;-93
2024/03/05 06:44:36;;;;;;;52.83;27.58;;;8.10;99.90;;;;;;4902738;29;20033;-93
2024/03/05 06:47:04;;;;;;;56.83;29.38;;;8.10;99.90;;;;;;4902641;29;20044;-88
2024/03/05 06:49:38;;;;;;;55.38;29.20;;;8.10;99.90;;;;;;4902672;29;20040;-88
2024/03/05 06:57:49;;;;;;;53.33;29.92;;;8.10;99.90;;;;;;4912973;29;20039;-90
2024/03/05 07:00:15;;;;;;;54.65;29.75;;;8.20;99.90;;;;;;4907072;29;20053;-91
2024/03/05 07:02:41;;;;;;;50.45;27.15;;;8.20;99.90;;;;;;4910545;29;20035;-91
2024/03/05 07:05:08;;;;;;;54.63;29.25;;;8.10;99.90;;;;;;4907618;29;20124;-91
2024/03/05 07:07:33;;;;;;;50.13;28.88;;;8.20;99.90;;;;;;4903184;29;20176;-92
2024/03/05 07:09:59;;;;;;;54.90;27.85;;;8.20;99.90;;;;;;4906472;29;20477;-91
2024/03/05 07:12:26;;;;;;;52.40;28.20;;;8.10;99.90;;;;;;4905131;29;20055;-91
2024/03/05 07:14:52;;;;;;;52.97;27.42;;;8.10;99.90;;;;;;4909471;29;20032;-90
2024/03/05 07:17:19;;;;;;;57.13;29.85;;;8.10;99.90;;;;;;4908980;29;20496;-90
2024/03/05 07:19:44;;;;;;;59.90;30.08;;;8.10;99.90;;;;;;4906976;29;20537;-91
2024/03/05 07:22:11;;;;;;;61.40;30.27;;;8.00;99.90;;;;;;4911652;29;20065;-90
2024/03/05 07:24:37;;;;;;;55.72;28.90;;;8.00;99.90;;;;;;4911498;29;20039;-91
2024/03/05 07:27:03;;;;;;;65.20;31.77;;;8.00;99.90;;;;;;4908281;29;20021;-89
2024/03/05 07:29:29;;;;;;;56.97;30.33;;;8.00;99.90;;;;;;4910297;29;20043;-91
2024/03/05 07:31:55;;;;;;;63.80;32.55;;;8.10;99.90;;;;;;4907253;29;20047;-90
2024/03/05 07:34:20;;;;;;;57.28;30.48;;;8.10;99.90;;;;;;4905855;29;20085;-91
2024/03/05 07:36:46;;;;;;;57.30;30.77;;;8.10;99.90;;;;;;4915201;29;20039;-90
2024/03/05 07:39:12;;;;;;;57.42;31.60;;;8.10;99.90;;;;;;4917687;29;20028;-88
2024/03/05 07:41:40;;;;;;;57.05;31.58;;;8.20;99.90;;;;;;4902760;29;20039;-91
2024/03/05 07:44:05;;;;;;;57.00;29.88;;;8.20;99.90;;;;;;4920659;29;20028;-92
2024/03/05 07:46:32;;;;;;;55.72;31.63;;;8.30;99.90;;;;;;4920978;29;20032;-91
2024/03/05 07:48:58;;;;;;;52.92;29.05;;;8.30;99.90;;;;;;4919340;29;20103;-92
2024/03/05 07:51:24;;;;;;;53.13;30.45;;;8.20;99.90;;;;;;4912362;29;20528;-90
2024/03/05 07:53:49;;;;;;;60.72;31.45;;;8.30;99.90;;;;;;4917638;29;20032;-89
2024/03/05 07:56:15;;;;;;;59.67;31.13;;;8.20;99.90;;;;;;4916660;29;20056;-89
2024/03/05 07:58:40;;;;;;;66.85;32.00;;;8.20;99.90;;;;;;4916404;29;20032;-88
2024/03/05 08:01:07;;;;;;;50.30;29.55;;;8.40;99.90;;;;;;4916919;29;20138;-89
2024/03/05 08:03:32;;;;;;;54.42;30.77;;;8.40;99.90;;;;;;4902719;29;20036;-88
2024/03/05 08:05:58;;;;;;;59.33;31.20;;;8.30;99.90;;;;;;4916356;29;20028;-91
2024/03/05 08:08:25;;;;;;;53.10;30.40;;;8.40;99.90;;;;;;4919293;29;20060;-87
2024/03/05 08:10:51;;;;;;;51.97;29.60;;;8.40;99.90;;;;;;4918328;29;20477;-88
2024/03/05 08:13:19;;;;;;;57.65;30.13;;;8.40;99.90;;;;;;4910437;29;20039;-90
2024/03/05 08:15:44;;;;;;;59.00;31.20;;;8.40;99.90;;;;;;4914415;29;20035;-90
2024/03/05 08:18:12;;;;;;;56.60;30.88;;;8.40;99.90;;;;;;4911229;29;20627;-88
2024/03/05 08:20:38;;;;;;;60.72;32.40;;;8.40;99.90;;;;;;4921307;29;20108;-88
2024/03/05 08:23:04;;;;;;;61.75;32.33;;;8.40;99.90;;;;;;4913522;29;20036;-84
2024/03/05 08:25:29;;;;;;;66.53;32.45;;;8.40;99.90;;;;;;4909374;29;20028;-85
2024/03/05 08:27:55;;;;;;;57.15;32.67;;;8.40;99.90;;;;;;4915804;29;20055;-87
2024/03/05 08:30:22;;;;;;;60.38;33.65;;;8.40;99.90;;;;;;4915584;29;20036;-86
2024/03/05 08:32:49;;;;;;;56.60;31.55;;;8.40;99.90;;;;;;4916209;29;20024;-90
2024/03/05 08:35:15;;;;;;;61.10;31.48;;;8.40;99.90;;;;;;4917597;29;20046;-86
2024/03/05 08:37:41;;;;;;;52.60;29.95;;;8.40;99.90;;;;;;4918178;29;20024;-88
2024/03/05 08:40:14;;;;;;;61.17;32.20;;;8.40;99.90;;;;;;4927745;29;20032;-90
2024/03/05 08:42:48;;;;;;;59.03;32.25;;;8.40;99.90;;;;;;4920149;29;20028;-90
2024/03/05 08:45:20;;;;;;;56.90;32.47;;;8.40;99.90;;;;;;4907026;29;20449;-90
2024/03/05 08:47:50;;;;;;;51.78;31.23;;;8.50;99.90;;;;;;4916468;29;20050;-88
2024/03/05 08:50:17;;;;;;;58.42;31.35;;;8.50;99.90;;;;;;4900398;29;20025;-88
2024/03/05 08:52:43;;;;;;;56.38;31.55;;;8.50;99.90;;;;;;4897665;29;20063;-86
2024/03/05 08:55:10;;;;;;;58.15;32.78;;;8.40;99.90;;;;;;4904733;29;20480;-91
2024/03/05 08:57:39;;;;;;;55.90;32.25;;;8.50;99.90;;;;;;4918630;29;20032;-90
2024/03/05 09:00:09;;;;;;;56.38;31.23;;;8.40;99.90;;;;;;4917975;29;20051;-88
2024/03/05 09:02:35;;;;;;;54.90;31.05;;;8.40;99.90;;;;;;4911115;29;20545;-89
2024/03/05 09:05:04;;;;;;;51.80;31.63;;;8.50;99.90;;;;;;4904309;29;20036;-90
2024/03/05 09:07:30;;;;;;;57.25;32.10;;;8.50;99.90;;;;;;4905105;29;20098;-91
2024/03/05 09:09:55;;;;;;;53.80;30.35;;;8.50;99.90;;;;;;4918397;29;20032;-89
2024/03/05 09:12:21;;;;;;;55.80;32.63;;;8.50;99.90;;;;;;4918091;29;20088;-89
2024/03/05 09:14:46;;;;;;;51.70;32.13;;;8.50;99.90;;;;;;4917930;29;20043;-89
2024/03/05 09:17:12;;;;;;;55.10;31.35;;;8.50;99.90;;;;;;4918263;29;20031;-91
2024/03/05 09:19:38;;;;;;;47.00;28.40;;;8.50;99.90;;;;;;4918342;29;20034;-89
2024/03/05 09:22:06;;;;;;;55.88;32.10;;;8.50;99.90;;;;;;4919097;29;20369;-90
2024/03/05 09:24:32;;;;;;;61.20;31.02;;;8.50;99.90;;;;;;4917881;29;20393;-93
2024/03/05 09:27:01;;;;;;;48.42;30.10;;;8.60;99.90;;;;;;4914676;29;20028;-90
2024/03/05 09:29:28;;;;;;;55.00;30.42;;;8.60;99.90;;;;;;4917944;29;20028;-90
2024/03/05 09:31:53;;;;;;;50.95;28.42;;;8.60;99.90;;;;;;4921311;29;20055;-89
2024/03/05 09:34:19;;;;;;;49.80;30.85;;;8.70;99.90;;;;;;4919889;29;20481;-90
2024/03/05 09:36:45;;;;;;;50.33;30.75;;;8.60;99.90;;;;;;4916011;29;20120;-94
2024/03/05 09:39:11;;;;;;;54.85;30.83;;;8.60;99.90;;;;;;4917578;29;20114;-90
2024/03/05 09:41:41;;;;;;;50.38;30.00;;;8.80;99.90;;;;;;4919676;29;20024;-88
2024/03/05 09:44:08;;;;;;;50.78;30.35;;;8.60;99.90;;;;;;4921171;29;20028;-89
2024/03/05 09:46:36;;;;;;;53.22;30.50;;;8.70;99.90;;;;;;4910472;29;20516;-90
2024/03/05 09:49:07;;;;;;;47.15;27.52;;;8.70;99.90;;;;;;4917628;29;20063;-92
2024/03/05 09:51:33;;;;;;;54.00;30.77;;;8.60;99.90;;;;;;4914423;29;20052;-89
2024/03/05 09:53:59;;;;;;;47.70;27.63;;;8.70;99.90;;;;;;4922830;29;20039;-88
2024/03/05 09:56:24;;;;;;;49.65;28.40;;;8.70;99.90;;;;;;4922439;29;20035;-92
2024/03/05 09:58:51;;;;;;;42.50;27.50;;;8.80;99.90;;;;;;4930650;29;20031;-91
2024/03/05 10:01:17;;;;;;;46.35;27.00;;;8.70;99.90;;;;;;4930012;29;20063;-88
2024/03/05 10:03:43;;;;;;;43.08;26.55;;;8.80;99.90;;;;;;4924342;29;20028;-88
2024/03/05 10:06:11;;;;;;;35.13;23.85;;;8.90;99.90;;;;;;4914221;29;20485;-90
2024/03/05 10:08:37;;;;;;;38.95;23.70;;;8.90;99.90;;;;;;4922699;29;20056;-89
2024/03/05 10:11:04;;;;;;;37.88;23.92;;;9.00;99.90;;;;;;4908807;29;20070;-89
2024/03/05 10:13:35;;;;;;;32.05;21.77;;;8.90;99.90;;;;;;4902659;29;20029;-91
2024/03/05 10:16:16;;;;;;;35.78;23.30;;;9.00;99.90;;;;;;4921345;29;20059;-88
2024/03/05 10:18:42;;;;;;;33.42;21.92;;;9.10;99.90;;;;;;4941021;29;20023;-91
2024/03/05 10:21:22;;;;;;;39.13;22.90;;;9.10;99.90;;;;;;4940557;29;20038;-88
2024/03/05 10:24:02;;;;;;;36.83;23.15;;;9.10;99.90;;;;;;4938532;29;20032;-89
2024/03/05 10:26:29;;;;;;;35.20;23.48;;;9.10;99.90;;;;;;4921811;29;20036;-87
2024/03/05 10:28:57;;;;;;;35.38;22.83;;;10.20;99.90;;;;;;4901535;29;20583;-90
2024/03/05 10:31:25;;;;;;;35.55;22.02;;;9.20;99.90;;;;;;4910317;29;20107;-91
2024/03/05 10:33:53;;;;;;;34.13;22.92;;;9.30;99.90;;;;;;4902389;29;20103;-87
2024/03/05 10:36:40;;;;;;;31.38;22.05;;;9.30;99.90;;;;;;4904765;29;20060;-88
2024/03/05 10:39:06;;;;;;;31.67;21.33;;;9.40;99.90;;;;;;4903092;29;20492;-88
2024/03/05 10:41:34;;;;;;;31.55;23.02;;;9.60;99.90;;;;;;4930910;29;20027;-88
2024/03/05 10:44:00;;;;;;;35.10;22.92;;;9.40;99.90;;;;;;4942384;29;20093;-89
2024/03/05 10:46:30;;;;;;;35.05;21.17;;;9.40;99.90;;;;;;4942987;29;20028;-88
2024/03/05 10:49:00;;;;;;;34.78;21.48;;;9.30;99.90;;;;;;4914345;29;20036;-91
2024/03/05 10:51:30;;;;;;;30.52;22.13;;;9.40;99.90;;;;;;4919489;29;20032;-89
2024/03/05 10:54:00;;;;;;;35.85;22.63;;;9.40;99.90;;;;;;4919791;29;20032;-90
2024/03/05 10:56:26;;;;;;;34.70;22.48;;;9.40;99.90;;;;;;4920646;29;20381;-89
2024/03/05 10:59:53;;;;;;;29.23;21.92;;;9.30;99.90;;;;;;4919554;29;20032;-89
2024/03/05 11:01:47;;;;;;;28.25;20.17;;;9.30;99.90;;;;;;4915121;29;20079;-89
2024/03/05 11:04:32;;;;;;;30.48;20.95;;;9.30;99.90;;;;;;4914381;29;20430;-89
2024/03/05 11:06:58;;;;;;;33.45;21.33;;;9.40;99.90;;;;;;4915960;29;20392;-93
2024/03/05 11:09:25;;;;;;;30.10;20.27;;;9.40;99.90;;;;;;4910842;29;20025;-89
2024/03/05 11:12:08;;;;;;;23.95;18.00;;;9.40;99.90;;;;;;4904475;29;20068;-90
2024/03/05 11:14:35;;;;;;;30.38;18.65;;;9.40;99.90;;;;;;4912831;29;20046;-89
2024/03/05 11:17:09;;;;;;;25.27;18.05;;;9.40;99.90;;;;;;4919918;29;20115;-91
2024/03/05 11:19:38;;;;;;;32.28;18.63;;;9.50;99.90;;;;;;4923388;29;20047;-90
2024/03/05 11:22:24;;;;;;;21.38;16.50;;;9.50;99.90;;;;;;4918719;29;20497;-90
2024/03/05 11:25:01;;;;;;;21.85;16.27;;;9.50;99.90;;;;;;4907593;29;20033;-89
2024/03/05 11:27:29;;;;;;;29.33;16.50;;;9.50;99.90;;;;;;4912944;29;20024;-91
2024/03/05 11:30:12;;;;;;;20.55;16.13;;;9.50;99.90;;;;;;4909433;29;20381;-94
2024/03/05 11:32:39;;;;;;;25.10;16.67;;;9.50;99.90;;;;;;4923780;29;20028;-91
2024/03/05 11:35:07;;;;;;;27.65;17.98;;;9.50;99.90;;;;;;4920002;29;20114;-90
2024/03/05 11:37:47;;;;;;;25.05;16.77;;;9.50;99.90;;;;;;4901743;29;20048;-92
2024/03/05 11:40:14;;;;;;;23.65;17.33;;;9.50;99.90;;;;;;4904670;29;20504;-90
2024/03/05 11:42:47;;;;;;;25.55;18.92;;;9.60;99.90;;;;;;4913728;29;20028;-92
2024/03/05 11:45:47;;;;;;;29.83;18.77;;;9.60;99.90;;;;;;4921338;29;20032;-90
2024/03/05 11:48:21;;;;;;;27.73;18.80;;;9.60;99.90;;;;;;4936370;29;20527;-93
2024/03/05 11:50:47;;;;;;;25.65;17.77;;;9.60;99.90;;;;;;4937981;29;20082;-91
2024/03/05 11:53:13;;;;;;;23.92;18.45;;;9.60;99.90;;;;;;4936586;29;20115;-91
2024/03/05 11:55:39;;;;;;;21.33;16.42;;;9.60;99.90;;;;;;4905214;29;20040;-91
2024/03/05 11:58:09;;;;;;;27.45;18.00;;;9.50;99.90;;;;;;4903415;29;20025;-93
2024/03/05 12:00:35;;;;;;;19.55;15.70;;;9.70;99.90;;;;;;4901617;29;20056;-91
2024/03/05 12:03:01;;;;;;;24.40;17.50;;;9.70;99.90;;;;;;4917745;29;20037;-87
2024/03/05 12:05:29;;;;;;;25.63;17.20;;;9.70;99.90;;;;;;4919182;29;20024;-91
2024/03/05 12:08:03;;;;;;;24.25;16.27;;;9.70;99.90;;;;;;4919258;29;20043;-88
2024/03/05 12:10:35;;;;;;;22.10;15.90;;;9.70;99.90;;;;;;4918352;29;20028;-88
2024/03/05 12:13:01;;;;;;;18.40;14.95;;;10.20;99.90;;;;;;4920108;29;20028;-91
2024/03/05 12:15:29;;;;;;;22.52;15.82;;;9.80;99.90;;;;;;4901102;29;20049;-90
2024/03/05 12:17:56;;;;;;;22.00;16.00;;;9.70;99.90;;;;;;4915302;29;20519;-89
2024/03/05 12:20:21;;;;;;;21.90;14.70;;;9.70;99.90;;;;;;4918027;29;20523;-89
2024/03/05 12:22:51;;;;;;;22.50;14.07;;;9.70;99.90;;;;;;4901414;29;20029;-89
2024/03/05 12:25:21;;;;;;;22.27;14.80;;;9.70;99.90;;;;;;4908270;29;20029;-90
2024/03/05 12:27:48;;;;;;;19.40;14.75;;;9.70;99.90;;;;;;4942343;29;20028;-91
2024/03/05 12:30:15;;;;;;;20.20;14.13;;;9.70;99.90;;;;;;4941705;29;20039;-91
2024/03/05 12:32:42;;;;;;;16.75;12.50;;;9.70;99.90;;;;;;4940231;29;20555;-91
2024/03/05 12:35:10;;;;;;;19.48;14.13;;;9.70;99.90;;;;;;4929845;29;20040;-90
2024/03/05 12:37:38;;;;;;;18.95;13.25;;;9.70;99.90;;;;;;4924566;29;20028;-90
2024/03/05 12:40:07;;;;;;;21.63;13.85;;;9.70;99.90;;;;;;4934746;29;20035;-91
2024/03/05 12:42:34;;;;;;;14.63;11.80;;;9.70;99.90;;;;;;4916476;29;20059;-90
2024/03/05 12:45:07;;;;;;;14.35;10.77;;;9.60;99.90;;;;;;4937121;29;20034;-90